Time;durP1;ratioP1;P1;durP2;ratioP2;P2;SDS_P1;SDS_P2;PMS_P1;PMS_P2;Temp;Humidity;BMP_temperature;BMP_pressure;BME280_temperature;BME280_humidity;BME280_pressure;Samples;Min_cycle;Max_cycle;Signal;HPM_P1;HPM_P2
2022/01/30 00:02:07;;;;;;;29.15;16.63;;;;;;;3.67;40.35;101201.84;5055307;28;20033;-77
2022/01/30 00:04:37;;;;;;;23.75;15.90;;;;;;;3.53;41.33;101190.72;5055583;28;20032;-77
2022/01/30 00:07:06;;;;;;;35.50;21.95;;;;;;;3.48;39.68;101190.78;5055759;28;20060;-77
2022/01/30 00:09:39;;;;;;;35.58;21.08;;;;;;;3.48;40.17;101179.78;5055570;28;20091;-77
2022/01/30 00:12:08;;;;;;;35.25;18.85;;;;;;;3.51;39.77;101189.38;5056364;28;20029;-77
2022/01/30 00:14:39;;;;;;;27.00;15.90;;;;;;;3.51;39.86;101190.19;5056063;28;20033;-77
2022/01/30 00:17:17;;;;;;;28.13;16.02;;;;;;;3.37;41.07;101187.31;5055498;28;20031;-78
2022/01/30 00:19:48;;;;;;;33.60;17.58;;;;;;;3.27;41.62;101175.59;5055218;28;20032;-78
2022/01/30 00:24:57;;;;;;;32.78;15.80;;;;;;;3.39;40.57;101154.00;5055949;28;20463;-77
2022/01/30 00:27:44;;;;;;;29.95;14.73;;;;;;;3.37;41.33;101150.72;5054626;28;20025;-77
2022/01/30 00:30:18;;;;;;;30.00;16.45;;;;;;;3.40;42.22;101150.13;5056368;28;20075;-77
2022/01/30 00:32:56;;;;;;;31.35;19.27;;;;;;;3.40;40.90;101161.94;5055445;28;20096;-77
2022/01/30 00:35:24;;;;;;;42.50;22.35;;;;;;;3.44;41.51;101161.38;5053687;28;20049;-77
2022/01/30 00:37:49;;;;;;;41.50;20.17;;;;;;;3.36;41.90;101154.59;5054042;28;20120;-77
2022/01/30 00:40:17;;;;;;;39.75;18.65;;;;;;;3.26;42.04;101143.69;5054048;28;20064;-77
2022/01/30 00:42:48;;;;;;;32.63;16.67;;;;;;;3.23;41.47;101139.59;5053934;28;20029;-77
2022/01/30 00:45:16;;;;;;;35.78;17.40;;;;;;;3.21;42.02;101143.75;5053931;28;20071;-77
2022/01/30 00:47:41;;;;;;;39.78;18.38;;;;;;;2.91;40.55;101122.84;5054212;28;20530;-77
2022/01/30 00:50:09;;;;;;;41.35;19.50;;;;;;;3.03;40.69;101137.03;5053879;28;20128;-77
2022/01/30 00:52:35;;;;;;;32.58;15.25;;;;;;;2.93;40.86;101146.22;5054369;28;20040;-77
2022/01/30 00:55:03;;;;;;;24.35;11.95;;;;;;;2.98;41.09;101140.63;5054378;28;20383;-77
2022/01/30 00:57:34;;;;;;;22.73;9.50;;;;;;;3.03;39.24;101146.09;5055179;28;20033;-77
2022/01/30 01:00:03;;;;;;;21.95;10.45;;;;;;;3.04;39.16;101142.25;5053695;28;20518;-77
2022/01/30 01:02:32;;;;;;;29.20;13.55;;;;;;;3.02;39.67;101136.22;5054876;28;20064;-77
2022/01/30 01:05:05;;;;;;;27.10;14.18;;;;;;;3.04;40.68;101124.94;5053521;28;20028;-77
2022/01/30 01:07:32;;;;;;;32.88;14.82;;;;;;;2.95;40.02;101121.97;5053503;28;20115;-77
2022/01/30 01:10:12;;;;;;;26.73;13.50;;;;;;;3.10;39.62;101130.09;5053592;28;20040;-77
2022/01/30 01:23:32;;;;;;;28.75;12.13;;;;;;;3.03;38.17;101102.09;5054580;28;20037;-77
2022/01/30 01:26:03;;;;;;;21.25;11.82;;;;;;;3.05;38.03;101097.16;5054545;28;20379;-77
2022/01/30 01:28:29;;;;;;;25.58;13.43;;;;;;;3.06;39.72;101104.28;5053559;28;20025;-77
2022/01/30 01:30:57;;;;;;;34.70;14.32;;;;;;;3.13;37.97;101095.69;5053783;28;20433;-77
2022/01/30 01:33:33;;;;;;;30.50;14.60;;;;;;;3.07;38.06;101083.09;5054778;28;20032;-77
2022/01/30 01:36:06;;;;;;;25.02;12.18;;;;;;;3.07;37.73;101086.66;5056406;28;20074;-77
2022/01/30 01:38:36;;;;;;;21.85;10.75;;;;;;;3.06;37.80;101071.28;5056599;28;20032;-77
2022/01/30 01:41:09;;;;;;;19.08;8.65;;;;;;;3.11;38.73;101064.91;5056438;28;20033;-77
2022/01/30 01:43:36;;;;;;;17.13;7.40;;;;;;;3.17;37.81;101071.19;5056199;28;20035;-77
2022/01/30 01:46:13;;;;;;;15.98;7.55;;;;;;;3.13;38.49;101065.44;5056395;28;20025;-77
2022/01/30 01:48:45;;;;;;;14.48;8.48;;;;;;;3.17;38.89;101057.44;5055773;28;20390;-77
2022/01/30 01:51:21;;;;;;;17.38;7.70;;;;;;;3.22;38.55;101049.94;5056224;28;20039;-77
2022/01/30 01:53:49;;;;;;;15.82;7.22;;;;;;;3.26;38.04;101050.19;5056465;28;20482;-77
2022/01/30 01:56:16;;;;;;;17.33;7.07;;;;;;;3.31;38.41;101063.88;5074114;28;20032;-77
2022/01/30 01:58:47;;;;;;;14.40;7.20;;;;;;;3.19;38.20;101057.94;5056497;28;20211;-77
2022/01/30 02:01:16;;;;;;;12.32;6.82;;;;;;;3.07;38.70;101042.66;5056199;28;20040;-77
2022/01/30 02:03:44;;;;;;;13.68;5.97;;;;;;;3.12;38.76;101055.53;5073792;28;20036;-77
2022/01/30 02:06:17;;;;;;;13.25;5.22;;;;;;;3.13;38.36;101055.25;5055976;28;20056;-77
2022/01/30 02:09:10;;;;;;;14.95;4.90;;;;;;;3.17;37.47;101043.69;5056541;28;20028;-76
2022/01/30 02:11:38;;;;;;;12.70;6.03;;;;;;;3.25;37.31;101063.13;5072919;28;20360;-76
2022/01/30 02:25:27;;;;;;;13.20;5.57;;;;;;;3.28;36.63;101039.69;5074617;28;20043;-77
2022/01/30 02:27:58;;;;;;;13.77;5.30;;;;;;;3.34;35.60;101019.25;5073806;28;20035;-77
2022/01/30 02:30:33;;;;;;;8.82;4.07;;;;;;;3.39;34.28;101027.44;5056043;28;20040;-77
2022/01/30 02:33:07;;;;;;;9.68;4.75;;;;;;;3.31;35.25;101025.38;5073720;28;20107;-77
2022/01/30 02:35:37;;;;;;;12.40;5.05;;;;;;;3.26;36.72;101017.19;5052247;28;20079;-77
2022/01/30 02:38:05;;;;;;;11.18;5.00;;;;;;;3.43;35.53;101014.75;5052996;28;20116;-77
2022/01/30 02:40:39;;;;;;;10.63;4.53;;;;;;;3.48;34.99;101011.94;5052544;28;20502;-77
2022/01/30 02:43:07;;;;;;;12.60;4.90;;;;;;;3.48;34.50;101009.19;5052849;28;20040;-77
2022/01/30 02:45:48;;;;;;;13.57;5.63;;;;;;;3.41;35.82;101006.00;5052801;28;20036;-77
2022/01/30 02:48:30;;;;;;;13.07;4.95;;;;;;;3.51;34.08;101008.56;5053131;28;20080;-77
2022/01/30 02:51:11;;;;;;;12.05;7.18;;;;;;;2.95;35.46;100935.03;5038661;28;20055;-77
2022/01/30 02:53:43;;;;;;;14.85;7.22;;;;;;;3.42;36.33;100996.63;5052643;28;20021;-77
2022/01/30 02:56:11;;;;;;;12.88;6.13;;;;;;;3.33;38.67;101007.44;5052915;28;20377;-77
2022/01/30 02:58:37;;;;;;;10.82;5.40;;;;;;;3.39;37.41;101005.44;5053477;28;20408;-77
2022/01/30 03:01:05;;;;;;;12.00;5.05;;;;;;;3.17;37.75;100996.94;5056873;28;20071;-77
2022/01/30 03:03:35;;;;;;;8.15;5.38;;;;;;;3.03;37.34;100985.81;5056827;28;20039;-77
2022/01/30 03:06:03;;;;;;;10.10;4.22;;;;;;;2.95;36.99;100984.53;5056975;28;20087;-77
2022/01/30 03:08:31;;;;;;;7.35;4.47;;;;;;;2.95;37.68;100979.03;5056740;28;20086;-77
2022/01/30 03:10:59;;;;;;;9.13;4.75;;;;;;;3.00;36.57;100965.22;5057426;28;20360;-78
2022/01/30 03:13:28;;;;;;;7.60;3.47;;;;;;;3.06;35.27;100954.97;5057035;28;20544;-78
2022/01/30 03:15:55;;;;;;;9.10;4.88;;;;;;;3.01;38.86;100964.09;5056055;28;20036;-77
2022/01/30 03:18:21;;;;;;;24.83;12.45;;;;;;;3.00;38.20;100959.72;5055619;28;20043;-77
2022/01/30 03:20:54;;;;;;;25.48;13.13;;;;;;;3.02;39.16;100964.94;5055627;28;20033;-77
2022/01/30 03:23:22;;;;;;;20.15;11.50;;;;;;;3.01;41.13;100950.38;5055625;28;20502;-77
2022/01/30 03:25:57;;;;;;;35.28;15.88;;;;;;;2.99;41.10;100946.28;5055367;28;20447;-77
2022/01/30 03:28:29;;;;;;;65.25;36.88;;;;;;;2.98;39.38;100950.13;5055702;28;20029;-77
2022/01/30 03:30:59;;;;;;;60.30;35.50;;;;;;;3.00;41.58;100954.22;5056407;28;20017;-77
2022/01/30 03:33:25;;;;;;;27.05;15.07;;;;;;;3.10;40.90;100948.59;5057833;28;20081;-77
2022/01/30 03:35:59;;;;;;;12.57;8.50;;;;;;;3.15;41.20;100951.28;5058173;28;20402;-77
2022/01/30 03:38:28;;;;;;;11.25;6.90;;;;;;;3.05;40.08;100940.44;5058505;28;20052;-77
2022/01/30 03:40:58;;;;;;;14.38;5.82;;;;;;;2.97;40.45;100949.31;5059059;28;20055;-77
2022/01/30 03:43:29;;;;;;;6.72;5.20;;;;;;;2.97;35.66;100952.06;5059106;28;20047;-77
2022/01/30 03:46:00;;;;;;;7.90;4.90;;;;;;;2.88;34.86;100957.41;5072940;28;20035;-77
2022/01/30 03:48:25;;;;;;;13.75;8.93;;;;;;;2.85;37.37;100943.41;5058347;28;20062;-77
2022/01/30 03:50:56;;;;;;;14.93;7.75;;;;;;;2.91;41.04;100944.16;5058689;28;20032;-77
2022/01/30 03:53:27;;;;;;;16.42;10.48;;;;;;;2.96;41.40;100942.19;5058312;28;20489;-77
2022/01/30 03:55:55;;;;;;;21.48;12.23;;;;;;;2.96;40.42;100946.84;5058265;28;20039;-77
2022/01/30 03:58:21;;;;;;;19.20;11.45;;;;;;;2.97;41.10;100935.56;5057978;28;20024;-77
2022/01/30 04:00:49;;;;;;;16.30;9.52;;;;;;;2.96;41.04;100936.69;5058324;28;20036;-77
2022/01/30 04:03:37;;;;;;;15.10;11.07;;;;;;;2.94;42.14;100936.16;5058241;28;20032;-77
2022/01/30 04:06:09;;;;;;;11.55;7.60;;;;;;;2.96;41.55;100931.19;5049001;28;20055;-77
2022/01/30 04:08:34;;;;;;;7.55;4.82;;;;;;;2.90;40.41;100932.34;5075999;28;20090;-77
2022/01/30 04:11:00;;;;;;;7.13;5.30;;;;;;;2.92;41.63;100935.63;5057631;28;20033;-77
2022/01/30 04:13:29;;;;;;;9.32;4.93;;;;;;;2.92;40.28;100932.88;5058043;28;20079;-77
2022/01/30 04:15:59;;;;;;;11.60;5.20;;;;;;;2.85;39.26;100924.16;5057960;28;20462;-77
2022/01/30 04:18:27;;;;;;;6.93;4.80;;;;;;;2.91;39.27;100935.91;5058370;28;20520;-77
2022/01/30 04:20:58;;;;;;;8.13;4.45;;;;;;;2.92;37.80;100932.88;5057238;28;20056;-77
2022/01/30 04:23:31;;;;;;;8.25;6.35;;;;;;;2.96;41.60;100941.34;5057822;28;20083;-77
2022/01/30 04:25:56;;;;;;;11.55;8.55;;;;;;;2.92;43.14;100934.81;5075382;28;20032;-77
2022/01/30 04:28:25;;;;;;;15.90;10.02;;;;;;;2.96;43.10;100947.66;5057651;28;20021;-77
2022/01/30 04:30:55;;;;;;;19.30;11.73;;;;;;;2.91;43.08;100955.97;5057941;28;20437;-77
2022/01/30 04:33:21;;;;;;;12.32;7.35;;;;;;;2.98;41.35;100945.44;5057370;28;20095;-77
2022/01/30 04:35:53;;;;;;;10.88;5.28;;;;;;;2.95;40.46;100939.72;5057558;28;20032;-77
2022/01/30 04:38:31;;;;;;;7.38;4.43;;;;;;;2.87;41.92;100930.19;5075796;28;20029;-77
2022/01/30 04:41:21;;;;;;;9.07;5.25;;;;;;;2.83;43.03;100932.72;5057495;28;20039;-77
2022/01/30 05:00:33;;;;;;;6.07;3.38;;;;;;;3.38;39.84;100913.03;5075523;28;20040;-77
2022/01/30 05:03:24;;;;;;;6.30;3.60;;;;;;;3.32;41.10;100911.47;5074615;28;20446;-77
2022/01/30 05:06:03;;;;;;;4.40;3.15;;;;;;;3.21;40.76;100916.28;5074854;28;20040;-77
2022/01/30 05:08:31;;;;;;;5.07;3.72;;;;;;;3.13;40.64;100905.94;5074986;28;20016;-77
2022/01/30 05:11:06;;;;;;;6.60;4.47;;;;;;;3.05;41.09;100904.69;5056858;28;20029;-77
2022/01/30 05:13:33;;;;;;;5.75;3.80;;;;;;;3.02;42.07;100902.50;5075323;28;20024;-77
2022/01/30 05:16:04;;;;;;;8.15;5.55;;;;;;;2.91;42.03;100903.75;5057309;28;20032;-77
2022/01/30 05:18:32;;;;;;;10.20;6.10;;;;;;;2.86;43.26;100904.63;5056827;28;20021;-77
2022/01/30 05:21:01;;;;;;;9.50;6.05;;;;;;;2.83;43.17;100907.16;5057021;28;20115;-77
2022/01/30 05:23:27;;;;;;;14.32;6.55;;;;;;;2.86;44.50;100906.56;5056472;28;20061;-77
2022/01/30 05:25:56;;;;;;;15.07;7.85;;;;;;;2.87;45.99;100919.19;5056949;28;20125;-77
2022/01/30 05:28:30;;;;;;;11.10;6.97;;;;;;;2.87;46.93;100919.19;5056836;28;20035;-77
2022/01/30 05:30:56;;;;;;;14.07;7.10;;;;;;;2.83;46.70;100921.72;5056801;28;20494;-77
2022/01/30 05:33:24;;;;;;;15.05;7.25;;;;;;;2.82;46.49;100917.34;5056784;28;20039;-77
2022/01/30 05:35:55;;;;;;;16.02;7.10;;;;;;;2.81;46.89;100923.13;5056547;28;20064;-77
2022/01/30 05:38:23;;;;;;;13.75;6.70;;;;;;;2.78;47.43;100934.72;5056494;28;20025;-77
2022/01/30 05:40:52;;;;;;;12.77;7.07;;;;;;;2.75;46.85;100929.78;5056854;28;20036;-77
2022/01/30 05:43:18;;;;;;;13.70;7.03;;;;;;;2.83;46.73;100945.66;5056606;28;20024;-77
2022/01/30 05:45:51;;;;;;;12.80;7.65;;;;;;;2.79;45.95;100948.16;5056612;28;20043;-77
2022/01/30 05:48:28;;;;;;;11.10;5.93;;;;;;;2.71;46.80;100939.72;5057483;28;20524;-77
2022/01/30 05:50:56;;;;;;;11.20;6.47;;;;;;;2.70;47.08;100932.59;5056751;28;20032;-77
2022/01/30 05:53:22;;;;;;;18.48;10.13;;;;;;;2.75;47.06;100929.78;5074764;28;20024;-77
2022/01/30 05:55:52;;;;;;;22.77;12.23;;;;;;;2.77;46.29;100935.78;5057531;28;20032;-77
2022/01/30 05:58:21;;;;;;;15.52;10.05;;;;;;;2.72;45.87;100931.19;5056868;28;20082;-76
2022/01/30 06:00:49;;;;;;;13.85;7.07;;;;;;;2.82;45.63;100938.47;5057399;28;20478;-76
2022/01/30 06:03:17;;;;;;;16.75;8.50;;;;;;;2.85;47.49;100929.66;5056897;28;20025;-76
2022/01/30 06:05:46;;;;;;;15.50;8.68;;;;;;;2.78;47.80;100934.72;5056940;28;20099;-76
2022/01/30 06:08:28;;;;;;;23.33;13.05;;;;;;;2.81;47.40;100939.59;5055996;28;20028;-76
2022/01/30 06:10:53;;;;;;;29.20;13.18;;;;;;;2.83;47.46;100932.72;5056723;28;20040;-76
2022/01/30 06:13:21;;;;;;;29.52;16.85;;;;;;;2.76;47.21;100934.16;5055755;28;20028;-76
2022/01/30 06:15:47;;;;;;;37.58;20.70;;;;;;;2.82;47.01;100930.25;5055803;28;20083;-76
2022/01/30 06:18:18;;;;;;;40.72;20.30;;;;;;;2.79;47.17;100912.41;5055453;28;20036;-76
2022/01/30 06:20:49;;;;;;;29.60;15.30;;;;;;;2.64;47.98;100896.09;5055675;28;20032;-76
2022/01/30 06:23:15;;;;;;;34.17;16.52;;;;;;;2.63;49.00;100911.78;5055653;28;20024;-76
2022/01/30 06:25:43;;;;;;;40.03;19.85;;;;;;;2.86;48.09;100903.81;5055759;28;20028;-76
2022/01/30 06:28:11;;;;;;;23.52;13.40;;;;;;;3.54;46.15;100905.38;5055650;28;20096;-76
2022/01/30 06:30:39;;;;;;;22.70;12.50;;;;;;;4.17;45.63;100894.69;5056291;28;20378;-76
2022/01/30 06:33:07;;;;;;;12.75;7.80;;;;;;;4.69;43.99;100878.03;5056588;28;20111;-76
2022/01/30 06:35:32;;;;;;;14.35;7.80;;;;;;;5.42;40.30;100889.94;5055895;28;20057;-76
2022/01/30 06:37:58;;;;;;;14.75;10.77;;;;;;;5.68;40.48;100876.38;5056154;28;20029;-76
2022/01/30 06:40:24;;;;;;;12.45;7.03;;;;;;;5.90;42.69;100881.88;5055766;28;20493;-76
2022/01/30 06:42:49;;;;;;;14.32;6.90;;;;;;;6.34;41.21;100871.13;5056138;28;20029;-76
2022/01/30 06:45:19;;;;;;;23.73;11.80;;;;;;;6.95;39.59;100858.34;5056496;28;20033;-76
2022/01/30 06:47:45;;;;;;;22.20;11.52;;;;;;;7.42;38.34;100866.88;5056535;28;20095;-76
2022/01/30 06:50:12;;;;;;;18.25;9.45;;;;;;;8.03;36.74;100862.09;5040627;28;20045;-78
2022/01/30 06:52:41;;;;;;;15.07;7.82;;;;;;;8.63;35.80;100872.25;5039500;28;20033;-77
2022/01/30 06:55:07;;;;;;;17.38;8.73;;;;;;;9.29;35.06;100863.38;5056706;28;20410;-78
2022/01/30 06:57:45;;;;;;;14.57;8.57;;;;;;;9.86;33.90;100863.53;5055803;28;20033;-78
2022/01/30 07:00:12;;;;;;;22.42;14.15;;;;;;;10.25;31.48;100866.94;5053364;28;20025;-78
2022/01/30 07:02:39;;;;;;;21.00;12.68;;;;;;;9.93;32.40;100865.75;5056618;28;20038;-78
2022/01/30 07:05:05;;;;;;;20.20;12.38;;;;;;;9.08;32.98;100860.56;5057983;28;20036;-78
2022/01/30 07:07:30;;;;;;;15.90;8.48;;;;;;;9.50;31.82;100855.03;5056016;28;20086;-77
2022/01/30 07:09:56;;;;;;;16.17;9.02;;;;;;;10.01;30.87;100861.25;5056250;28;20037;-77
2022/01/30 07:12:22;;;;;;;13.40;8.18;;;;;;;10.44;29.31;100866.41;5055936;28;20061;-77
2022/01/30 07:14:48;;;;;;;12.93;8.10;;;;;;;10.95;28.92;100859.34;5056093;28;20118;-77
2022/01/30 07:17:14;;;;;;;14.00;8.55;;;;;;;11.46;28.20;100884.00;5057058;28;20021;-77
2022/01/30 07:19:40;;;;;;;15.30;10.27;;;;;;;11.89;27.68;100880.53;5056403;28;20025;-77
2022/01/30 07:22:05;;;;;;;18.30;11.15;;;;;;;12.17;26.41;100886.09;5056367;28;20025;-77
2022/01/30 07:24:31;;;;;;;30.88;15.48;;;;;;;12.26;25.89;100885.94;5057020;28;20473;-77
2022/01/30 07:27:00;;;;;;;24.45;15.02;;;;;;;12.67;25.76;100892.97;5056390;28;20124;-77
2022/01/30 07:29:26;;;;;;;28.70;17.42;;;;;;;12.90;25.81;100901.56;5056639;28;20032;-77
2022/01/30 07:31:52;;;;;;;25.95;16.85;;;;;;;13.13;26.16;100910.09;5056215;28;20032;-77
2022/01/30 07:34:20;;;;;;;24.55;16.45;;;;;;;13.05;26.81;100892.34;5056227;28;20049;-77
2022/01/30 07:36:46;;;;;;;20.02;14.32;;;;;;;13.44;27.25;100919.63;5056679;28;20029;-77
2022/01/30 07:39:19;;;;;;;22.60;12.82;;;;;;;13.54;25.68;100888.31;5056759;28;20021;-76
2022/01/30 07:41:53;;;;;;;18.05;11.85;;;;;;;13.86;24.86;100900.97;5057184;28;20029;-77
2022/01/30 07:44:18;;;;;;;20.27;13.10;;;;;;;14.19;23.41;100893.22;5058019;28;20035;-77
2022/01/30 07:46:44;;;;;;;19.90;14.15;;;;;;;14.43;22.54;100901.28;5055828;28;20056;-77
2022/01/30 07:49:16;;;;;;;23.40;14.35;;;;;;;14.53;22.50;100894.28;5056393;28;20029;-77
2022/01/30 07:51:42;;;;;;;17.05;11.35;;;;;;;14.58;22.12;100906.00;5056905;28;20058;-77
2022/01/30 07:54:08;;;;;;;14.80;8.13;;;;;;;14.65;21.25;100891.31;5056636;28;20534;-77
2022/01/30 07:56:39;;;;;;;16.83;9.48;;;;;;;15.31;20.76;100891.97;5056361;28;20062;-77
2022/01/30 07:59:07;;;;;;;17.88;10.70;;;;;;;15.49;20.45;100887.41;5056280;28;20029;-77
2022/01/30 08:01:36;;;;;;;17.98;10.77;;;;;;;15.77;20.31;100897.47;5055879;28;20507;-77
2022/01/30 08:04:08;;;;;;;15.52;10.32;;;;;;;15.79;20.36;100906.31;5055378;28;20123;-77
2022/01/30 08:06:39;;;;;;;25.48;19.73;;;;;;;15.42;18.50;100904.97;5056195;28;20032;-77
2022/01/30 08:09:06;;;;;;;52.80;34.67;;;;;;;15.70;17.98;100886.94;5054523;28;20060;-77
2022/01/30 08:11:37;;;;;;;28.23;17.70;;;;;;;15.27;18.10;100885.50;5054752;28;20035;-77
2022/01/30 08:14:06;;;;;;;19.30;13.77;;;;;;;15.87;19.02;100886.38;5055062;28;20029;-77
2022/01/30 08:16:34;;;;;;;16.17;10.98;;;;;;;15.74;17.96;100890.59;5054906;28;20430;-78
2022/01/30 08:18:59;;;;;;;12.88;9.60;;;;;;;15.52;17.61;100895.09;5053951;28;20029;-78
2022/01/30 08:21:27;;;;;;;15.05;9.55;;;;;;;15.42;18.59;100899.34;5054627;28;20032;-78
2022/01/30 08:23:55;;;;;;;8.57;6.32;;;;;;;15.26;18.07;100881.09;5054736;28;20128;-78
2022/01/30 08:26:23;;;;;;;8.43;4.82;;;;;;;15.01;18.38;100886.31;5054209;28;20124;-78
2022/01/30 08:28:55;;;;;;;8.68;5.68;;;;;;;14.15;18.86;100893.97;5055080;28;20029;-78
2022/01/30 08:31:22;;;;;;;13.30;8.35;;;;;;;13.34;19.84;100879.06;5056567;28;20061;-77
2022/01/30 08:33:50;;;;;;;12.07;8.85;;;;;;;13.55;20.35;100881.53;5056045;28;20127;-77
2022/01/30 08:36:19;;;;;;;13.75;10.20;;;;;;;13.43;20.60;100885.28;5056781;28;20025;-77
2022/01/30 08:38:47;;;;;;;13.95;10.85;;;;;;;13.61;22.25;100872.47;5057198;28;20102;-78
2022/01/30 08:41:17;;;;;;;18.50;12.57;;;;;;;14.15;21.07;100899.56;5057500;28;20032;-78
2022/01/30 08:43:45;;;;;;;13.15;9.55;;;;;;;13.87;21.03;100899.00;5058658;28;20490;-77
2022/01/30 08:46:13;;;;;;;14.60;11.82;;;;;;;13.32;21.40;100889.81;5058606;28;20037;-78
2022/01/30 08:48:39;;;;;;;11.52;9.23;;;;;;;13.70;20.78;100903.03;5059043;28;20037;-78
2022/01/30 08:51:07;;;;;;;9.18;6.60;;;;;;;12.88;20.17;100898.28;5055026;28;20025;-77
2022/01/30 08:53:35;;;;;;;9.50;6.88;;;;;;;12.62;20.63;100892.44;5058701;28;20079;-78
2022/01/30 08:56:06;;;;;;;12.32;6.55;;;;;;;13.41;19.99;100898.78;5058791;28;20032;-78
2022/01/30 08:58:34;;;;;;;9.18;6.47;;;;;;;13.19;19.45;100893.84;5058115;28;20056;-78
2022/01/30 09:01:00;;;;;;;10.60;6.30;;;;;;;13.46;19.89;100901.28;5058766;28;20020;-78
2022/01/30 09:03:31;;;;;;;11.10;5.93;;;;;;;13.61;19.84;100899.63;5059606;28;20442;-78
2022/01/30 09:05:56;;;;;;;9.07;5.82;;;;;;;13.60;20.18;100868.06;5060346;28;20059;-78
2022/01/30 09:08:22;;;;;;;10.25;6.43;;;;;;;13.46;20.03;100901.28;5060842;28;20025;-79
2022/01/30 09:10:49;;;;;;;9.88;6.72;;;;;;;13.40;20.60;100901.94;5060136;28;20021;-78
2022/01/30 09:13:15;;;;;;;9.30;5.72;;;;;;;13.37;21.15;100895.13;5055430;28;20146;-78
2022/01/30 09:15:43;;;;;;;10.15;6.22;;;;;;;13.59;21.65;100905.59;5055297;28;20029;-78
2022/01/30 09:18:10;;;;;;;9.27;7.13;;;;;;;13.76;22.98;100909.16;5056781;28;20087;-78
2022/01/30 09:20:41;;;;;;;6.20;5.13;;;;;;;14.22;23.53;100898.06;5054529;28;20025;-78
2022/01/30 09:23:08;;;;;;;11.30;5.63;;;;;;;14.53;23.40;100897.09;5054575;28;20082;-78
2022/01/30 09:25:36;;;;;;;9.95;6.20;;;;;;;14.38;23.88;100890.38;5054157;28;20036;-78
2022/01/30 09:28:02;;;;;;;10.07;8.30;;;;;;;14.63;23.06;100890.88;5054613;28;20029;-78
2022/01/30 09:30:30;;;;;;;8.90;7.35;;;;;;;14.88;23.93;100888.50;5054935;28;20412;-78
2022/01/30 09:32:56;;;;;;;11.20;8.15;;;;;;;14.57;24.95;100867.97;5055201;28;20112;-78
2022/01/30 09:35:24;;;;;;;11.98;7.75;;;;;;;14.48;25.80;100861.81;5053462;28;20485;-78
2022/01/30 09:37:50;;;;;;;11.10;7.95;;;;;;;14.33;25.82;100866.31;5055704;28;20502;-78
2022/01/30 09:40:18;;;;;;;39.67;25.50;;;;;;;13.90;26.98;100859.06;5054745;28;20036;-78
2022/01/30 09:42:46;;;;;;;19.90;13.55;;;;;;;13.55;27.83;100875.94;5054981;28;20463;-78
2022/01/30 09:45:18;;;;;;;18.55;12.65;;;;;;;13.31;28.30;100866.63;5055291;28;20036;-78
2022/01/30 09:47:46;;;;;;;27.77;18.98;;;;;;;13.54;29.76;100877.13;5055712;28;20048;-78
2022/01/30 09:50:12;;;;;;;36.22;21.40;;;;;;;13.67;29.80;100869.41;5055687;28;20060;-78
2022/01/30 09:52:40;;;;;;;20.15;12.90;;;;;;;13.80;31.47;100866.09;5055482;28;20506;-78
2022/01/30 09:55:09;;;;;;;31.80;15.05;;;;;;;14.20;31.17;100866.84;5055223;28;20025;-78
2022/01/30 09:57:35;;;;;;;29.92;17.58;;;;;;;13.80;30.86;100870.88;5056134;28;20031;-78
2022/01/30 10:00:04;;;;;;;20.73;14.80;;;;;;;13.60;31.29;100861.66;5054615;28;20084;-78
2022/01/30 10:02:31;;;;;;;34.17;19.10;;;;;;;13.42;30.95;100864.06;5055604;28;20056;-78
2022/01/30 10:04:57;;;;;;;28.92;17.88;;;;;;;13.15;31.23;100867.81;5055227;28;20033;-77
2022/01/30 10:07:49;;;;;;;22.08;15.90;;;;;;;13.16;32.59;100824.75;5054381;28;20033;-78
2022/01/30 10:10:22;;;;;;;35.55;20.60;;;;;;;13.56;32.72;100856.00;5056357;28;20063;-78
2022/01/30 10:13:15;;;;;;;21.70;12.90;;;;;;;13.49;33.86;100855.03;5057593;28;20032;-77
2022/01/30 10:15:56;;;;;;;36.88;18.42;;;;;;;13.23;35.26;100855.66;5055032;28;20033;-77
2022/01/30 10:18:33;;;;;;;19.60;12.63;;;;;;;13.19;36.18;100840.75;5054373;28;20025;-78
2022/01/30 10:21:01;;;;;;;19.10;12.75;;;;;;;13.74;35.35;100844.34;5056666;28;20044;-78
2022/01/30 10:23:36;;;;;;;18.50;11.57;;;;;;;13.65;35.95;100841.00;5055362;28;20039;-77
2022/01/30 10:26:08;;;;;;;15.38;9.07;;;;;;;14.02;36.32;100836.56;5057409;28;20033;-77
2022/01/30 10:28:40;;;;;;;12.40;7.93;;;;;;;14.27;36.48;100833.41;5056486;28;20073;-79
2022/01/30 10:31:08;;;;;;;19.83;9.98;;;;;;;14.42;36.29;100832.47;5054467;28;20426;-77
2022/01/30 10:33:45;;;;;;;11.52;8.68;;;;;;;14.89;36.22;100832.09;5057004;28;20044;-77
2022/01/30 10:36:13;;;;;;;14.05;8.27;;;;;;;14.77;36.61;100821.09;5058870;28;20043;-77
2022/01/30 10:38:46;;;;;;;15.32;7.00;;;;;;;14.97;36.65;100821.81;5058403;28;20344;-78
2022/01/30 10:41:18;;;;;;;10.48;7.05;;;;;;;15.40;36.28;100800.00;5057130;28;20062;-78
2022/01/30 10:44:08;;;;;;;13.27;8.97;;;;;;;16.05;35.16;100813.59;5057313;28;20039;-78
2022/01/30 10:46:40;;;;;;;12.32;7.82;;;;;;;15.48;36.42;100804.47;5057539;28;20040;-78
2022/01/30 10:49:14;;;;;;;10.88;6.82;;;;;;;15.96;35.83;100807.47;5057586;28;20056;-78
2022/01/30 10:51:53;;;;;;;15.43;8.48;;;;;;;16.21;35.38;100811.38;5057325;28;20060;-78
2022/01/30 10:54:32;;;;;;;11.63;8.38;;;;;;;16.42;34.92;100805.16;5075804;28;20567;-78
2022/01/30 10:57:16;;;;;;;15.32;7.47;;;;;;;16.46;35.42;100802.38;5076103;28;20402;-78
2022/01/30 10:59:45;;;;;;;;;;;;;;;16.82;34.70;100805.47;5058744;28;20059;-78
2022/01/30 11:02:18;;;;;;;12.30;7.10;;;;;;;16.45;34.83;100793.13;5058729;28;19960;-78
2022/01/30 11:04:49;;;;;;;8.45;6.07;;;;;;;16.73;35.24;100803.84;5056446;28;20028;-78
2022/01/30 11:07:20;;;;;;;11.55;8.40;;;;;;;16.68;35.00;100818.22;5075227;28;20037;-78
2022/01/30 11:10:01;;;;;;;11.25;7.47;;;;;;;17.05;34.08;100811.69;5057058;28;20021;-78
2022/01/30 11:12:34;;;;;;;9.02;7.35;;;;;;;17.03;34.53;100811.25;5056563;28;20033;-78
2022/01/30 11:15:23;;;;;;;12.63;8.38;;;;;;;17.38;34.29;100818.28;5056678;28;20032;-78
2022/01/30 11:17:50;;;;;;;9.55;6.53;;;;;;;17.29;33.88;100813.81;5074496;28;20485;-78
2022/01/30 11:20:19;;;;;;;12.43;8.70;;;;;;;17.06;34.28;100799.22;5076259;28;20021;-78
2022/01/30 11:22:47;;;;;;;11.07;7.82;;;;;;;17.44;33.55;100813.91;5059555;28;20029;-78
2022/01/30 11:25:16;;;;;;;11.38;7.93;;;;;;;17.66;33.50;100815.59;5059623;28;20032;-78
2022/01/30 11:27:45;;;;;;;12.63;8.88;;;;;;;17.70;32.35;100805.16;5058880;28;20120;-79
2022/01/30 11:30:15;;;;;;;8.27;6.13;;;;;;;17.28;33.98;100798.16;5076131;28;20024;-79
2022/01/30 11:32:41;;;;;;;12.75;7.70;;;;;;;17.05;35.18;100794.81;5059140;28;20059;-79
2022/01/30 11:35:09;;;;;;;12.55;8.05;;;;;;;16.31;36.80;100789.41;5055235;28;20458;-79
2022/01/30 11:37:39;;;;;;;10.93;6.38;;;;;;;16.15;37.78;100784.84;5057752;28;20106;-79
2022/01/30 11:40:17;;;;;;;11.23;6.88;;;;;;;16.19;37.60;100791.31;5057793;28;20025;-78
2022/01/30 11:42:46;;;;;;;10.93;7.03;;;;;;;16.36;37.59;100772.19;5058460;28;20116;-78
2022/01/30 11:45:19;;;;;;;10.45;6.43;;;;;;;16.07;38.43;100766.28;5060258;28;20029;-79
2022/01/30 11:47:48;;;;;;;8.50;5.68;;;;;;;16.73;37.28;100758.88;5058870;28;20025;-78
2022/01/30 11:50:17;;;;;;;10.43;7.18;;;;;;;16.66;37.57;100764.38;5059037;28;20071;-78
2022/01/30 11:53:16;;;;;;;12.52;6.63;;;;;;;16.28;38.38;100767.69;5058315;28;20036;-78
2022/01/30 11:56:02;;;;;;;8.85;5.38;;;;;;;16.22;38.10;100767.25;5057693;28;20049;-78
2022/01/30 11:58:38;;;;;;;8.40;6.25;;;;;;;15.80;39.18;100751.59;5058639;28;20483;-79
2022/01/30 12:01:35;;;;;;;10.80;5.00;;;;;;;15.18;41.54;100746.44;5058716;28;20063;-79
2022/01/30 12:04:14;;;;;;;8.55;5.82;;;;;;;15.67;40.80;100761.47;5059618;28;20059;-79
2022/01/30 12:06:43;;;;;;;7.63;4.90;;;;;;;15.27;41.52;100745.34;5060393;28;20039;-79
2022/01/30 12:09:15;;;;;;;7.07;4.95;;;;;;;15.02;42.26;100751.44;5062218;28;20044;-79
2022/01/30 12:11:40;;;;;;;7.43;4.65;;;;;;;15.05;42.08;100744.25;5062097;28;20051;-80
2022/01/30 12:14:21;;;;;;;9.05;4.78;;;;;;;15.29;41.61;100709.34;5062461;28;20029;-79
2022/01/30 12:16:52;;;;;;;7.72;4.60;;;;;;;14.80;43.10;100744.69;5057666;28;20471;-79